Terminal Aerodrome Forecast
Issued by NWS

Home | Current Version | Previous Version | Text Only | Print | Product List | Glossary On
Versions: 1 2 3 4 5 6 7 8 9 10 11 12 13 14 15 16 17 18 19 20 21 22 23 24 25 26 27 28 29 30 31 32
000
FTAK31 PANC 121138 AAA
TAFADL
TAF AMD
PADL 121138Z 1212/1312 35010KT P6SM -SHSN SCT020 BKN035
      TEMPO 1212/1215 6SM -SHSN OVC020
     FM121500 36010KT P6SM VCSH SCT030 BKN060
     FM121800 36008KT P6SM SCT015 BKN030 BKN050
     FM130000 01010KT P6SM VCSH SCT025 BKN035=

USA.gov is the U.S. government's official web portal to all federal, state and local government web resources and services.